Time;durP1;ratioP1;P1;durP2;ratioP2;P2;SDS_P1;SDS_P2;PMS_P1;PMS_P2;Temp;Humidity;BMP_temperature;BMP_pressure;BME280_temperature;BME280_humidity;BME280_pressure;Samples;Min_cycle;Max_cycle;Signal;HPM_P1;HPM_P2
2023/10/19 00:01:43;;;;;;;9.57;5.47;;;12.20;99.90;;;;;;4110760;28;20503;-67
2023/10/19 00:03:49;;;;;;;7.20;5.22;;;12.20;99.90;;;;;;4127643;28;20033;-67
2023/10/19 00:05:50;;;;;;;9.80;4.93;;;12.20;99.90;;;;;;4126798;28;20066;-67
2023/10/19 00:07:53;;;;;;;8.38;4.40;;;12.20;99.90;;;;;;4126841;28;20356;-67
2023/10/19 00:09:54;;;;;;;8.80;4.32;;;12.30;99.90;;;;;;4127920;28;20467;-67
2023/10/19 00:11:55;;;;;;;10.15;5.28;;;12.30;99.90;;;;;;4131059;28;20034;-67
2023/10/19 00:13:57;;;;;;;7.18;5.03;;;12.30;99.90;;;;;;4126209;28;20035;-67
2023/10/19 00:15:58;;;;;;;7.15;4.70;;;12.30;99.90;;;;;;4125436;28;20026;-67
2023/10/19 00:18:06;;;;;;;6.60;4.68;;;12.30;99.90;;;;;;4127874;28;20058;-67
2023/10/19 00:20:50;;;;;;;8.38;3.90;;;12.30;99.90;;;;;;4109470;28;20383;-71
2023/10/19 00:22:30;;;;;;;8.93;5.00;;;12.30;99.90;;;;;;4124103;28;20035;-67
2023/10/19 00:24:31;;;;;;;6.88;4.32;;;12.30;99.90;;;;;;4126884;28;20027;-67
2023/10/19 00:26:32;;;;;;;8.18;4.45;;;12.30;99.90;;;;;;4126298;28;20118;-67
2023/10/19 00:28:35;;;;;;;6.93;4.72;;;12.40;99.90;;;;;;4126958;28;20045;-66
2023/10/19 00:30:36;;;;;;;9.48;4.65;;;12.40;99.90;;;;;;4114150;28;20475;-66
2023/10/19 00:32:38;;;;;;;7.88;4.30;;;12.40;99.90;;;;;;4129108;28;20455;-67
2023/10/19 00:34:39;;;;;;;7.78;4.50;;;12.40;99.90;;;;;;4113478;28;20043;-66
2023/10/19 00:36:39;;;;;;;7.40;4.88;;;12.40;99.90;;;;;;4129646;28;20042;-66
2023/10/19 00:38:50;;;;;;;7.68;4.25;;;12.40;99.90;;;;;;4109306;28;20098;-67
2023/10/19 00:41:07;;;;;;;7.13;4.72;;;12.50;99.90;;;;;;4111866;28;20456;-68
2023/10/19 00:43:10;;;;;;;6.63;4.53;;;12.40;99.90;;;;;;4126783;28;20388;-66
2023/10/19 00:45:12;;;;;;;7.95;4.28;;;12.40;99.90;;;;;;4112389;28;20031;-67
2023/10/19 00:47:13;;;;;;;;;;;12.50;99.90;;;;;;4127792;28;20459;-66
2023/10/19 00:49:14;;;;;;;6.28;4.03;;;12.50;99.90;;;;;;4130453;28;19917;-67
2023/10/19 00:51:27;;;;;;;6.22;4.20;;;12.50;99.90;;;;;;4110497;28;20031;-67
2023/10/19 00:53:27;;;;;;;7.22;4.68;;;12.50;99.90;;;;;;4111119;28;20403;-67
2023/10/19 00:55:28;;;;;;;6.78;4.30;;;12.50;99.90;;;;;;4126397;28;20035;-67
2023/10/19 00:57:34;;;;;;;8.15;5.07;;;12.60;99.90;;;;;;4130176;28;20108;-67
2023/10/19 00:59:42;;;;;;;7.13;4.75;;;12.50;99.90;;;;;;4109423;28;20035;-67
2023/10/19 01:01:47;;;;;;;8.00;4.55;;;12.50;99.90;;;;;;4092651;28;20050;-74
2023/10/19 01:03:52;;;;;;;6.32;4.78;;;12.60;99.90;;;;;;4124292;28;20039;-74
2023/10/19 01:05:54;;;;;;;6.65;4.88;;;12.50;99.90;;;;;;4106490;28;20138;-75
2023/10/19 01:07:57;;;;;;;6.68;4.80;;;12.60;99.90;;;;;;4116988;28;20143;-75
2023/10/19 01:10:00;;;;;;;6.45;4.65;;;12.60;99.90;;;;;;4088364;28;20066;-75
2023/10/19 01:12:11;;;;;;;6.55;4.30;;;12.60;99.90;;;;;;4108186;28;20035;-75
2023/10/19 01:14:20;;;;;;;7.13;4.82;;;12.60;99.90;;;;;;4122181;28;20058;-75
2023/10/19 01:16:22;;;;;;;6.82;4.70;;;12.60;99.90;;;;;;4101492;28;20572;-73
2023/10/19 01:18:22;;;;;;;8.00;5.40;;;12.60;99.90;;;;;;4118232;28;20045;-75
2023/10/19 01:22:31;;;;;;;9.32;4.78;;;12.70;99.90;;;;;;4124600;28;20042;-75
2023/10/19 01:24:40;;;;;;;6.63;4.72;;;12.70;99.90;;;;;;4123416;28;20471;-75
2023/10/19 01:26:42;;;;;;;7.40;4.55;;;12.70;99.90;;;;;;4121205;28;20411;-75
2023/10/19 01:28:51;;;;;;;6.50;4.35;;;12.70;99.90;;;;;;4118488;28;20055;-75
2023/10/19 01:30:52;;;;;;;9.02;5.55;;;12.70;99.90;;;;;;4112053;28;20049;-74
2023/10/19 01:32:52;;;;;;;7.65;5.50;;;12.80;99.90;;;;;;4121793;28;20035;-75
2023/10/19 01:34:53;;;;;;;7.20;5.07;;;12.80;99.90;;;;;;4121323;28;20031;-74
2023/10/19 01:36:55;;;;;;;11.68;5.75;;;12.80;99.90;;;;;;4114374;28;20371;-74
2023/10/19 01:39:10;;;;;;;10.40;5.50;;;12.80;99.90;;;;;;4121303;28;20462;-75
2023/10/19 01:41:13;;;;;;;6.07;4.70;;;12.80;99.90;;;;;;4116005;28;20034;-75
2023/10/19 01:43:20;;;;;;;9.35;5.82;;;12.90;99.90;;;;;;4121018;28;20113;-75
2023/10/19 01:45:21;;;;;;;7.10;5.43;;;12.80;99.90;;;;;;4122142;28;20117;-75
2023/10/19 01:47:22;;;;;;;7.00;4.88;;;12.90;99.90;;;;;;4121041;28;20498;-72
2023/10/19 01:49:26;;;;;;;9.90;4.70;;;12.90;99.90;;;;;;4121124;28;20059;-74
2023/10/19 01:51:28;;;;;;;6.70;4.53;;;12.90;99.90;;;;;;4119077;28;20484;-76
2023/10/19 01:53:29;;;;;;;7.47;5.10;;;12.90;99.90;;;;;;4121380;28;20038;-75
2023/10/19 01:55:37;;;;;;;6.10;4.72;;;12.90;99.90;;;;;;4102922;28;20487;-75
2023/10/19 01:57:39;;;;;;;8.35;4.65;;;12.90;99.90;;;;;;4114879;28;20518;-75
2023/10/19 01:59:39;;;;;;;8.52;5.25;;;12.90;99.90;;;;;;4120633;28;20034;-75
2023/10/19 02:01:44;;;;;;;9.02;5.45;;;12.90;99.90;;;;;;4120509;28;20190;-75
2023/10/19 02:03:46;;;;;;;7.05;4.53;;;13.00;99.90;;;;;;4121850;28;20031;-75
2023/10/19 02:05:49;;;;;;;5.27;4.03;;;13.00;99.90;;;;;;4123535;28;20046;-76
2023/10/19 02:07:50;;;;;;;6.32;4.72;;;13.00;99.90;;;;;;4124370;28;20030;-73
2023/10/19 02:09:51;;;;;;;6.25;4.45;;;13.10;99.90;;;;;;4118783;28;20489;-74
2023/10/19 02:11:56;;;;;;;8.18;4.95;;;13.00;99.90;;;;;;4116664;28;20039;-67
2023/10/19 02:13:59;;;;;;;7.38;4.75;;;13.10;99.90;;;;;;4118003;28;20038;-67
2023/10/19 02:16:00;;;;;;;6.55;4.78;;;13.10;99.90;;;;;;4114398;28;20034;-67
2023/10/19 02:18:03;;;;;;;5.85;4.20;;;13.10;99.90;;;;;;4116402;28;20852;-67
2023/10/19 02:20:24;;;;;;;7.22;4.32;;;13.20;99.90;;;;;;4117757;28;20477;-68
2023/10/19 02:22:24;;;;;;;5.32;4.18;;;13.10;99.90;;;;;;4117900;28;20080;-67
2023/10/19 02:24:28;;;;;;;8.02;4.53;;;13.20;99.90;;;;;;4117885;28;20071;-67
2023/10/19 02:26:30;;;;;;;6.32;4.53;;;13.20;99.90;;;;;;4117576;28;20125;-67
2023/10/19 02:28:31;;;;;;;5.43;4.32;;;13.20;99.90;;;;;;4116666;28;20133;-67
2023/10/19 02:30:33;;;;;;;7.75;4.40;;;13.20;99.90;;;;;;4116468;28;20514;-67
2023/10/19 02:32:35;;;;;;;7.78;4.70;;;13.30;99.90;;;;;;4114426;28;20480;-67
2023/10/19 02:34:35;;;;;;;6.68;4.22;;;13.30;99.90;;;;;;4117174;28;20050;-67
2023/10/19 02:36:37;;;;;;;8.27;4.40;;;13.30;99.90;;;;;;4112476;28;20144;-67
2023/10/19 02:38:40;;;;;;;7.07;4.70;;;13.30;99.90;;;;;;4118475;28;20039;-67
2023/10/19 02:40:40;;;;;;;7.90;5.00;;;13.30;99.90;;;;;;4115146;28;20042;-67
2023/10/19 02:42:41;;;;;;;6.57;4.65;;;13.30;99.90;;;;;;4116265;28;20494;-67
2023/10/19 02:44:41;;;;;;;5.38;4.18;;;13.30;99.90;;;;;;4112493;28;20102;-67
2023/10/19 02:46:42;;;;;;;5.43;3.97;;;13.30;99.90;;;;;;4115716;28;20042;-67
2023/10/19 02:48:49;;;;;;;8.32;4.35;;;13.30;99.90;;;;;;4110168;28;20038;-67
2023/10/19 02:50:50;;;;;;;5.78;4.07;;;13.30;99.90;;;;;;4116468;28;20508;-67
2023/10/19 02:52:50;;;;;;;6.25;4.00;;;13.40;99.90;;;;;;4116256;28;20035;-67
2023/10/19 02:54:55;;;;;;;4.97;3.60;;;13.40;99.90;;;;;;4115564;28;20044;-67
2023/10/19 02:56:58;;;;;;;5.63;3.78;;;13.40;99.90;;;;;;4114283;28;20042;-67
2023/10/19 02:59:02;;;;;;;4.68;3.40;;;13.40;99.90;;;;;;4114706;28;20062;-67
2023/10/19 03:01:03;;;;;;;4.88;2.90;;;13.40;99.90;;;;;;4108722;28;20046;-67
2023/10/19 03:03:06;;;;;;;6.18;3.50;;;13.50;99.90;;;;;;4116101;28;20041;-67
2023/10/19 03:05:17;;;;;;;5.13;3.28;;;13.50;99.90;;;;;;4114146;28;20117;-67
2023/10/19 03:07:18;;;;;;;4.57;3.30;;;13.50;99.90;;;;;;4117137;28;20038;-67
2023/10/19 03:09:29;;;;;;;4.55;3.00;;;13.60;99.90;;;;;;4119923;28;20038;-67
2023/10/19 03:11:34;;;;;;;7.22;3.58;;;13.60;99.90;;;;;;4120623;28;20093;-67
2023/10/19 03:13:35;;;;;;;4.05;2.80;;;13.60;99.90;;;;;;4112691;28;20463;-67
2023/10/19 03:15:35;;;;;;;5.45;2.92;;;13.60;99.90;;;;;;4112232;28;20096;-67
2023/10/19 03:17:36;;;;;;;3.75;2.53;;;13.70;99.90;;;;;;4117974;28;20400;-67
2023/10/19 03:19:38;;;;;;;4.00;2.78;;;13.70;99.90;;;;;;4116550;28;20039;-67
2023/10/19 03:21:49;;;;;;;5.15;2.65;;;13.70;99.90;;;;;;4116015;28;20038;-67
2023/10/19 03:23:49;;;;;;;5.63;3.00;;;13.80;99.90;;;;;;4116859;28;20106;-67
2023/10/19 03:28:05;;;;;;;7.53;3.65;;;13.80;99.90;;;;;;4117586;28;20039;-67
2023/10/19 03:30:07;;;;;;;7.47;3.38;;;13.80;99.90;;;;;;4115046;28;20486;-67
2023/10/19 03:32:08;;;;;;;12.83;4.10;;;13.80;99.90;;;;;;4112748;28;20093;-74
2023/10/19 03:34:12;;;;;;;4.68;3.15;;;13.80;99.90;;;;;;4114686;28;20093;-73
2023/10/19 03:36:13;;;;;;;4.70;3.30;;;13.80;99.90;;;;;;4112376;28;20383;-74
2023/10/19 03:38:18;;;;;;;6.00;3.38;;;13.80;99.90;;;;;;4115492;28;20133;-73
2023/10/19 03:40:27;;;;;;;4.43;3.50;;;13.80;99.90;;;;;;4113639;28;20035;-75
2023/10/19 03:42:32;;;;;;;6.22;3.85;;;13.80;99.90;;;;;;4110872;28;20035;-73
2023/10/19 03:47:01;;;;;;;5.03;3.42;;;13.80;99.90;;;;;;4119270;28;20034;-74
2023/10/19 03:49:10;;;;;;;5.57;3.70;;;13.80;99.90;;;;;;4116032;28;20062;-74
2023/10/19 03:51:13;;;;;;;7.07;4.22;;;13.80;99.90;;;;;;4112033;28;20277;-74
2023/10/19 03:53:14;;;;;;;;;;;13.80;99.90;;;;;;4124253;28;20046;-73
2023/10/19 03:55:18;;;;;;;4.13;3.40;;;13.80;99.90;;;;;;4114175;28;19909;-74
2023/10/19 03:57:20;;;;;;;6.22;4.47;;;13.80;99.90;;;;;;4112952;28;20042;-73
2023/10/19 03:59:21;;;;;;;4.65;3.83;;;13.80;99.90;;;;;;4103082;28;20059;-73
2023/10/19 04:01:21;;;;;;;4.80;3.25;;;13.80;99.90;;;;;;4111684;28;20380;-74
2023/10/19 04:03:24;;;;;;;6.63;3.83;;;13.80;99.90;;;;;;4123281;28;20030;-74
2023/10/19 04:05:28;;;;;;;6.20;3.97;;;13.80;99.90;;;;;;4123746;28;20054;-73
2023/10/19 04:07:31;;;;;;;6.63;4.28;;;13.80;99.90;;;;;;4120508;28;20479;-74
2023/10/19 04:09:31;;;;;;;4.65;3.45;;;13.80;99.90;;;;;;4125958;28;20039;-73
2023/10/19 04:11:51;;;;;;;4.40;3.42;;;13.80;99.90;;;;;;4104346;28;20065;-73
2023/10/19 04:13:52;;;;;;;5.50;3.38;;;13.80;99.90;;;;;;4046431;28;20053;-73
2023/10/19 04:15:53;;;;;;;4.20;3.20;;;13.80;99.90;;;;;;4095024;28;20043;-74
2023/10/19 04:17:58;;;;;;;5.75;3.30;;;13.80;99.90;;;;;;4124204;28;20038;-76
2023/10/19 04:19:59;;;;;;;5.25;3.67;;;13.80;99.90;;;;;;4118907;28;20042;-73
2023/10/19 04:21:59;;;;;;;3.88;3.08;;;13.80;99.90;;;;;;4122507;28;20030;-74
2023/10/19 04:24:00;;;;;;;4.13;3.38;;;13.90;99.90;;;;;;4124936;28;20508;-74
2023/10/19 04:26:05;;;;;;;3.88;3.33;;;13.90;99.90;;;;;;4126389;28;20061;-73
2023/10/19 04:28:06;;;;;;;6.20;3.65;;;13.90;99.90;;;;;;4123379;28;20050;-73
2023/10/19 04:30:15;;;;;;;4.45;3.03;;;13.80;99.90;;;;;;4121191;28;20035;-74
2023/10/19 04:32:24;;;;;;;4.70;3.13;;;13.80;99.90;;;;;;4119058;28;20115;-73
2023/10/19 04:34:25;;;;;;;3.72;3.30;;;13.80;99.90;;;;;;4119106;28;20488;-73
2023/10/19 04:36:27;;;;;;;4.43;3.33;;;13.90;99.90;;;;;;4127665;28;20043;-74
2023/10/19 04:38:30;;;;;;;4.10;2.90;;;13.90;99.90;;;;;;4101344;28;20500;-73
2023/10/19 04:40:31;;;;;;;4.68;3.38;;;13.90;99.90;;;;;;4118105;28;20039;-74
2023/10/19 04:42:32;;;;;;;5.90;3.28;;;13.90;99.90;;;;;;4124049;28;20077;-75
2023/10/19 04:44:34;;;;;;;4.28;3.25;;;13.90;99.90;;;;;;4116307;28;20031;-74
2023/10/19 04:46:35;;;;;;;4.83;3.30;;;13.90;99.90;;;;;;4113776;28;20050;-75
2023/10/19 04:48:35;;;;;;;4.90;3.60;;;13.90;99.90;;;;;;4122617;28;20627;-75
2023/10/19 04:50:36;;;;;;;6.15;3.58;;;13.80;99.90;;;;;;4121103;28;20034;-75
2023/10/19 04:52:37;;;;;;;6.18;3.47;;;13.90;99.90;;;;;;4123919;28;20467;-75
2023/10/19 04:54:37;;;;;;;9.32;4.13;;;13.90;99.90;;;;;;4124429;28;20057;-75
2023/10/19 04:56:38;;;;;;;4.78;3.40;;;13.80;99.90;;;;;;4127876;28;20101;-75
2023/10/19 04:58:38;;;;;;;8.27;3.88;;;13.90;99.90;;;;;;4111939;28;20123;-75
2023/10/19 05:00:39;;;;;;;5.22;3.60;;;13.90;99.90;;;;;;4117765;28;20097;-75
2023/10/19 05:02:40;;;;;;;10.65;3.58;;;13.90;99.90;;;;;;4120425;28;20544;-75
2023/10/19 05:04:40;;;;;;;6.57;3.78;;;13.90;99.90;;;;;;4126338;28;20383;-75
2023/10/19 05:06:41;;;;;;;3.95;3.53;;;13.90;99.90;;;;;;4130169;28;20601;-75
2023/10/19 05:08:42;;;;;;;6.80;3.83;;;13.90;99.90;;;;;;4130000;28;20039;-75
2023/10/19 05:10:42;;;;;;;5.85;4.00;;;13.80;99.90;;;;;;4129321;28;20035;-75
2023/10/19 05:12:43;;;;;;;4.72;3.78;;;13.80;99.90;;;;;;4130159;28;20391;-76
2023/10/19 05:14:43;;;;;;;6.18;4.38;;;13.90;99.90;;;;;;4129979;28;20034;-71
2023/10/19 05:16:44;;;;;;;6.25;4.38;;;13.90;99.90;;;;;;4128156;28;20101;-71
2023/10/19 05:18:44;;;;;;;7.85;3.92;;;13.90;99.90;;;;;;4128044;28;20113;-71
2023/10/19 05:20:46;;;;;;;6.65;4.20;;;13.90;99.90;;;;;;4112080;28;20088;-71
2023/10/19 05:22:46;;;;;;;5.75;4.15;;;13.90;99.90;;;;;;4117462;28;20038;-71
2023/10/19 05:24:47;;;;;;;5.93;3.90;;;13.80;99.90;;;;;;4129893;28;20137;-71
2023/10/19 05:26:49;;;;;;;7.50;4.13;;;13.80;99.90;;;;;;4127152;28;20475;-72
2023/10/19 05:28:50;;;;;;;5.03;3.20;;;13.90;99.90;;;;;;4092630;28;20031;-72
2023/10/19 05:30:51;;;;;;;6.63;3.83;;;13.80;99.90;;;;;;4103245;28;20039;-71
2023/10/19 05:32:51;;;;;;;7.53;4.05;;;13.80;99.90;;;;;;4103129;28;20045;-71
2023/10/19 05:34:52;;;;;;;5.35;3.70;;;13.80;99.90;;;;;;4122759;28;20034;-71
2023/10/19 05:36:54;;;;;;;6.28;3.92;;;13.90;99.90;;;;;;4128700;28;20045;-72
2023/10/19 05:38:54;;;;;;;5.03;3.58;;;13.90;99.90;;;;;;4101554;28;20027;-71
2023/10/19 05:40:57;;;;;;;4.82;3.28;;;13.80;99.90;;;;;;4125553;28;20039;-71
2023/10/19 05:42:57;;;;;;;4.05;3.30;;;13.90;99.90;;;;;;4135341;28;20034;-71
2023/10/19 05:44:59;;;;;;;6.25;3.15;;;13.90;99.90;;;;;;4130579;28;20573;-71
2023/10/19 05:47:00;;;;;;;4.68;3.20;;;13.90;99.90;;;;;;4124352;28;20398;-71
2023/10/19 05:49:03;;;;;;;3.95;2.95;;;13.90;99.90;;;;;;4131822;28;20031;-72
2023/10/19 05:51:04;;;;;;;5.05;2.97;;;13.90;99.90;;;;;;4128188;28;20039;-71
2023/10/19 05:53:05;;;;;;;3.97;3.05;;;13.90;99.90;;;;;;4122860;28;20084;-71
2023/10/19 05:55:06;;;;;;;4.25;2.70;;;13.90;99.90;;;;;;4128336;28;20152;-72
2023/10/19 05:57:08;;;;;;;5.15;3.13;;;13.90;99.90;;;;;;4127438;28;20058;-71
2023/10/19 05:59:10;;;;;;;;;;;13.90;99.90;;;;;;4126669;28;20097;-71
2023/10/19 06:01:10;;;;;;;5.50;2.72;;;13.90;99.90;;;;;;4128069;28;20322;-71
2023/10/19 06:03:11;;;;;;;4.47;2.85;;;13.90;99.90;;;;;;4128465;28;20084;-71
2023/10/19 06:05:15;;;;;;;3.60;2.80;;;13.90;99.90;;;;;;4128144;28;20068;-72
2023/10/19 06:07:16;;;;;;;5.07;2.97;;;13.90;99.90;;;;;;4129363;28;20389;-71
2023/10/19 06:09:17;;;;;;;5.68;3.00;;;13.90;99.90;;;;;;4128028;28;20050;-71
2023/10/19 06:11:18;;;;;;;3.63;2.60;;;13.90;99.90;;;;;;4127763;28;20489;-71
2023/10/19 06:13:20;;;;;;;7.50;2.80;;;13.90;99.90;;;;;;4107894;28;20078;-71
2023/10/19 06:15:24;;;;;;;3.30;2.87;;;14.00;99.90;;;;;;4124973;28;20038;-71
2023/10/19 06:17:25;;;;;;;2.97;2.28;;;13.90;99.90;;;;;;4125274;28;20049;-72
2023/10/19 06:19:26;;;;;;;4.85;2.80;;;14.00;99.90;;;;;;4127887;28;20378;-71
2023/10/19 06:21:26;;;;;;;4.57;2.63;;;14.00;99.90;;;;;;4126712;28;20054;-72
2023/10/19 06:23:27;;;;;;;3.17;2.47;;;14.00;99.90;;;;;;4128342;28;20034;-71
2023/10/19 06:25:28;;;;;;;4.18;2.40;;;14.00;99.90;;;;;;4107022;28;20067;-72
2023/10/19 06:27:29;;;;;;;2.63;2.03;;;14.00;99.90;;;;;;4127001;28;20536;-71
2023/10/19 06:29:30;;;;;;;4.28;2.25;;;14.00;99.90;;;;;;4126545;28;20037;-72
2023/10/19 06:31:30;;;;;;;6.35;3.35;;;14.00;99.90;;;;;;4126982;28;20027;-70
2023/10/19 06:33:33;;;;;;;3.88;2.75;;;14.00;99.90;;;;;;4128268;28;20491;-71
2023/10/19 06:35:37;;;;;;;3.83;2.35;;;14.00;99.90;;;;;;4123657;28;20049;-72
2023/10/19 06:37:38;;;;;;;;;;;14.00;99.90;;;;;;4128559;28;20092;-72
2023/10/19 06:39:41;;;;;;;4.78;2.58;;;14.00;99.90;;;;;;4118825;28;19945;-71
2023/10/19 06:41:42;;;;;;;5.20;3.03;;;14.00;99.90;;;;;;4127223;28;20042;-71
2023/10/19 06:43:43;;;;;;;4.70;2.90;;;14.00;99.90;;;;;;4127852;28;20072;-71
2023/10/19 06:45:46;;;;;;;5.25;3.42;;;14.00;99.90;;;;;;4125160;28;20038;-71
2023/10/19 06:47:49;;;;;;;7.03;3.20;;;14.00;99.90;;;;;;4127787;28;20038;-71
2023/10/19 06:49:50;;;;;;;8.40;5.45;;;14.00;99.90;;;;;;4127076;28;20109;-72
2023/10/19 06:51:50;;;;;;;8.35;5.13;;;14.00;99.90;;;;;;4109473;28;20097;-71
2023/10/19 06:53:51;;;;;;;5.05;3.55;;;14.00;99.90;;;;;;4126690;28;20542;-71
2023/10/19 06:55:52;;;;;;;4.90;3.10;;;14.00;99.90;;;;;;4127190;28;20034;-71
2023/10/19 06:57:55;;;;;;;3.95;3.03;;;14.00;99.90;;;;;;4125999;28;20174;-71
2023/10/19 06:59:55;;;;;;;;;;;14.00;99.90;;;;;;4111936;28;20061;-71
2023/10/19 07:01:56;;;;;;;6.13;3.17;;;14.00;99.90;;;;;;4126672;28;19909;-68
2023/10/19 07:03:56;;;;;;;4.38;2.60;;;14.00;99.90;;;;;;4127596;28;20104;-68
2023/10/19 07:05:58;;;;;;;7.13;2.83;;;14.00;99.90;;;;;;4120423;28;20065;-69
2023/10/19 07:07:59;;;;;;;4.15;3.00;;;14.10;99.90;;;;;;4120398;28;20652;-69
2023/10/19 07:10:00;;;;;;;5.50;2.90;;;14.10;99.90;;;;;;4106360;28;20391;-71
2023/10/19 07:12:01;;;;;;;4.10;3.13;;;14.10;99.90;;;;;;4111629;28;20142;-69
2023/10/19 07:14:01;;;;;;;4.63;2.95;;;14.10;99.90;;;;;;4116538;28;20034;-69
2023/10/19 07:16:03;;;;;;;4.55;2.60;;;14.10;99.90;;;;;;4118550;28;20403;-69
2023/10/19 07:18:06;;;;;;;4.72;3.10;;;14.10;99.90;;;;;;4101344;28;20516;-67
2023/10/19 07:20:09;;;;;;;4.15;2.65;;;14.20;99.90;;;;;;4111854;28;20042;-68
2023/10/19 07:22:09;;;;;;;4.70;2.90;;;14.20;99.90;;;;;;4092887;28;20043;-67
2023/10/19 07:24:11;;;;;;;3.53;2.45;;;14.20;99.90;;;;;;4115708;28;20045;-66
2023/10/19 07:26:14;;;;;;;7.03;4.20;;;14.20;99.90;;;;;;4115291;28;20023;-67
2023/10/19 07:28:17;;;;;;;4.80;3.42;;;14.20;99.90;;;;;;4110852;28;20535;-66
2023/10/19 07:30:25;;;;;;;4.05;3.00;;;14.30;99.90;;;;;;4118863;28;20027;-66
2023/10/19 07:32:27;;;;;;;4.57;2.70;;;14.30;99.90;;;;;;4115878;28;20041;-67
2023/10/19 07:34:33;;;;;;;3.65;2.70;;;14.30;99.90;;;;;;4117666;28;20030;-67
2023/10/19 07:36:36;;;;;;;4.82;2.90;;;14.40;99.90;;;;;;4115329;28;20399;-67
2023/10/19 07:38:38;;;;;;;4.25;2.90;;;14.40;99.90;;;;;;4114307;28;20093;-66
2023/10/19 07:40:39;;;;;;;4.13;2.50;;;14.40;99.90;;;;;;4116179;28;20051;-69
2023/10/19 07:42:42;;;;;;;3.85;2.65;;;14.40;99.90;;;;;;4115312;28;20521;-68
2023/10/19 07:44:43;;;;;;;4.70;3.10;;;14.40;99.90;;;;;;4115622;28;20486;-68
2023/10/19 07:46:44;;;;;;;4.30;2.97;;;14.40;99.90;;;;;;4108001;28;20046;-68
2023/10/19 07:48:44;;;;;;;5.70;3.47;;;14.40;99.90;;;;;;4094988;28;20039;-68
2023/10/19 07:50:45;;;;;;;6.60;3.05;;;14.50;99.90;;;;;;4105012;28;20379;-68
2023/10/19 07:52:53;;;;;;;4.68;2.55;;;14.50;99.90;;;;;;4116290;28;20038;-68
2023/10/19 07:54:54;;;;;;;5.45;3.28;;;14.50;99.90;;;;;;4100373;28;20051;-68
2023/10/19 07:56:54;;;;;;;5.03;2.92;;;14.50;99.90;;;;;;4117801;28;20031;-68
2023/10/19 07:58:56;;;;;;;5.07;3.00;;;14.50;99.90;;;;;;4116228;28;20430;-68
2023/10/19 08:00:57;;;;;;;3.97;2.90;;;14.60;99.90;;;;;;4112360;28;20031;-68
2023/10/19 08:02:58;;;;;;;4.57;3.13;;;14.60;99.90;;;;;;4113042;28;20273;-68
2023/10/19 08:04:58;;;;;;;5.30;3.10;;;14.60;99.90;;;;;;4112124;28;20035;-68
2023/10/19 08:21:57;;;;;;;5.07;2.80;;;14.80;99.90;;;;;;4144794;28;20479;-73
2023/10/19 08:23:58;;;;;;;5.47;3.17;;;14.80;99.90;;;;;;4148724;28;20496;-73
2023/10/19 08:25:59;;;;;;;4.13;2.45;;;14.80;99.90;;;;;;4146336;28;20033;-72
2023/10/19 08:28:01;;;;;;;5.25;2.90;;;14.80;99.90;;;;;;4149945;28;20132;-73
2023/10/19 08:30:03;;;;;;;4.33;2.80;;;14.90;99.90;;;;;;4149015;28;20033;-74
2023/10/19 08:32:04;;;;;;;5.60;3.22;;;14.90;99.90;;;;;;4144403;28;20049;-72
2023/10/19 08:34:05;;;;;;;4.88;2.72;;;14.90;99.90;;;;;;4150729;28;20049;-72
2023/10/19 08:36:06;;;;;;;4.65;2.60;;;14.90;99.90;;;;;;4148905;28;20461;-72
2023/10/19 08:38:11;;;;;;;3.70;2.30;;;14.90;99.90;;;;;;4151756;28;20116;-72
2023/10/19 08:40:15;;;;;;;5.55;2.30;;;14.90;99.90;;;;;;4147262;28;20048;-74
2023/10/19 08:42:16;;;;;;;4.40;2.72;;;15.00;99.90;;;;;;4147531;28;20532;-73
2023/10/19 08:44:17;;;;;;;6.68;2.80;;;15.00;99.90;;;;;;4151371;28;20159;-72
2023/10/19 08:46:17;;;;;;;5.25;2.22;;;15.00;99.90;;;;;;4150686;28;20045;-72
2023/10/19 08:48:19;;;;;;;4.78;2.55;;;15.00;99.90;;;;;;4148713;28;20128;-72
2023/10/19 08:50:23;;;;;;;10.88;5.60;;;15.10;99.90;;;;;;4149932;28;20609;-73
2023/10/19 08:52:26;;;;;;;7.50;4.10;;;15.10;99.90;;;;;;4123966;28;20037;-73
2023/10/19 08:54:27;;;;;;;5.47;3.15;;;15.10;99.90;;;;;;4155452;28;20049;-73
2023/10/19 08:56:28;;;;;;;4.85;2.85;;;15.20;99.90;;;;;;4128711;28;20732;-73
2023/10/19 08:58:28;;;;;;;5.03;2.45;;;15.20;99.90;;;;;;4154746;28;20305;-73
2023/10/19 09:00:51;;;;;;;8.13;2.17;;;15.20;99.90;;;;;;4147260;28;20658;-73
2023/10/19 09:02:52;;;;;;;3.90;2.67;;;15.30;99.90;;;;;;4148425;28;20038;-73
2023/10/19 09:04:53;;;;;;;7.03;2.78;;;15.30;99.90;;;;;;4150965;28;20086;-73
2023/10/19 09:06:55;;;;;;;5.45;2.78;;;15.40;99.90;;;;;;4150949;28;20045;-73
2023/10/19 09:08:57;;;;;;;3.92;2.47;;;15.40;99.90;;;;;;4152739;28;20602;-73
2023/10/19 09:10:58;;;;;;;;;;;15.40;99.90;;;;;;4150343;28;20037;-72
2023/10/19 09:13:00;;;;;;;5.40;2.65;;;15.50;99.90;;;;;;4151687;28;20010;-74
2023/10/19 09:15:00;;;;;;;2.30;2.10;;;15.50;99.90;;;;;;4150496;28;20041;-73
2023/10/19 09:17:31;;;;;;;5.40;2.35;;;15.50;99.90;;;;;;4134421;28;20619;-72
2023/10/19 09:19:36;;;;;;;2.35;2.03;;;15.60;99.90;;;;;;4128616;28;20033;-73
2023/10/19 09:21:55;;;;;;;4.30;2.15;;;15.60;99.90;;;;;;4154860;28;20175;-73
2023/10/19 09:24:15;;;;;;;5.60;2.30;;;15.60;99.90;;;;;;4117422;28;20048;-68
2023/10/19 09:26:37;;;;;;;5.25;2.30;;;15.70;99.90;;;;;;4159512;28;20125;-68
2023/10/19 09:28:56;;;;;;;7.03;2.60;;;15.80;99.90;;;;;;4109307;28;20575;-68
2023/10/19 09:31:16;;;;;;;5.55;3.25;;;15.80;99.90;;;;;;4132598;28;20063;-68
2023/10/19 09:33:35;;;;;;;7.10;3.78;;;15.90;99.90;;;;;;4132808;28;20044;-68
2023/10/19 09:35:56;;;;;;;9.85;3.63;;;16.00;99.90;;;;;;4154303;28;20132;-67
2023/10/19 09:38:16;;;;;;;8.88;3.28;;;16.10;99.90;;;;;;4133737;28;20068;-67
2023/10/19 09:40:35;;;;;;;6.45;2.50;;;16.30;99.90;;;;;;4102891;28;20079;-67
2023/10/19 09:42:58;;;;;;;5.70;2.67;;;16.40;99.90;;;;;;4155175;28;21098;-67
2023/10/19 09:45:19;;;;;;;5.75;2.47;;;16.60;99.90;;;;;;4088625;28;20401;-67
2023/10/19 09:47:43;;;;;;;6.05;2.55;;;16.70;99.90;;;;;;4150165;28;20060;-67
2023/10/19 09:49:44;;;;;;;4.65;1.98;;;16.90;99.90;;;;;;4151064;28;20072;-68
2023/10/19 09:51:49;;;;;;;3.85;1.80;;;17.00;99.90;;;;;;4149124;28;20471;-67
2023/10/19 09:54:09;;;;;;;5.53;2.33;;;17.10;99.90;;;;;;4151895;28;20333;-68
2023/10/19 09:56:17;;;;;;;4.82;2.22;;;17.20;99.90;;;;;;4151889;28;20073;-68
2023/10/19 09:58:23;;;;;;;5.53;2.15;;;17.40;99.90;;;;;;4151508;28;20052;-67
2023/10/19 10:00:23;;;;;;;4.35;2.17;;;17.40;99.90;;;;;;4152415;28;20042;-68
2023/10/19 10:02:25;;;;;;;6.18;2.10;;;17.50;99.90;;;;;;4148929;28;20041;-68
2023/10/19 10:04:33;;;;;;;3.30;1.42;;;17.50;99.90;;;;;;4144798;28;20030;-68
2023/10/19 10:06:54;;;;;;;3.25;1.48;;;17.60;99.90;;;;;;4151469;28;20037;-68
2023/10/19 10:08:55;;;;;;;4.53;1.50;;;17.70;99.90;;;;;;4142861;28;20137;-68
2023/10/19 10:10:56;;;;;;;3.90;1.98;;;17.80;99.90;;;;;;4152315;28;20119;-67
2023/10/19 10:13:26;;;;;;;10.85;2.28;;;17.90;99.90;;;;;;4153259;28;20045;-67
2023/10/19 10:15:40;;;;;;;6.82;2.00;;;18.00;99.90;;;;;;4134531;28;20056;-68
2023/10/19 10:17:41;;;;;;;3.95;1.80;;;18.10;99.90;;;;;;4136024;28;20104;-68
2023/10/19 10:19:41;;;;;;;6.28;2.47;;;18.20;99.90;;;;;;4134201;28;20424;-68
2023/10/19 10:22:11;;;;;;;4.25;1.55;;;18.30;99.90;;;;;;4132277;28;20110;-67
2023/10/19 10:24:14;;;;;;;6.03;2.10;;;18.30;99.90;;;;;;4135663;28;20448;-68
2023/10/19 10:26:19;;;;;;;8.02;3.25;;;18.40;99.90;;;;;;4135272;28;20033;-68
2023/10/19 10:28:23;;;;;;;6.30;2.80;;;18.50;99.90;;;;;;4134013;28;20129;-68
2023/10/19 10:30:24;;;;;;;5.55;1.98;;;18.50;99.90;;;;;;4134941;28;21369;-68
2023/10/19 10:32:52;;;;;;;3.83;1.63;;;18.50;99.90;;;;;;4134691;28;20034;-68
2023/10/19 10:34:53;;;;;;;6.50;1.95;;;18.50;99.90;;;;;;4150924;28;20114;-72
2023/10/19 10:37:02;;;;;;;5.38;1.70;;;18.50;99.90;;;;;;4132351;28;20497;-71
2023/10/19 10:39:05;;;;;;;5.53;1.55;;;18.50;99.90;;;;;;4148586;28;20042;-72
2023/10/19 10:41:10;;;;;;;4.07;1.75;;;18.50;99.90;;;;;;4150129;28;20037;-71
2023/10/19 10:43:12;;;;;;;4.43;1.52;;;18.50;99.90;;;;;;4149808;28;20387;-73
2023/10/19 10:45:21;;;;;;;3.13;1.40;;;18.50;99.90;;;;;;4150383;28;20175;-72
2023/10/19 10:47:24;;;;;;;3.50;1.40;;;18.50;99.90;;;;;;4150225;28;20044;-73
2023/10/19 10:49:25;;;;;;;2.90;1.20;;;18.50;99.90;;;;;;4131302;28;20106;-73
2023/10/19 10:51:30;;;;;;;8.32;3.55;;;18.50;99.90;;;;;;4132174;28;20073;-73
2023/10/19 10:53:32;;;;;;;8.63;2.25;;;18.50;99.90;;;;;;4148649;28;20045;-69
2023/10/19 10:55:32;;;;;;;4.35;1.92;;;18.50;99.90;;;;;;4148349;28;20045;-68
2023/10/19 10:57:33;;;;;;;3.13;1.48;;;18.50;99.90;;;;;;4150325;28;20068;-68
2023/10/19 10:59:35;;;;;;;5.03;1.48;;;18.60;99.90;;;;;;4150589;28;20084;-68
2023/10/19 11:01:36;;;;;;;4.15;1.50;;;18.70;99.90;;;;;;4149661;28;20072;-68
2023/10/19 11:03:37;;;;;;;7.53;2.30;;;18.70;99.90;;;;;;4150893;28;20053;-68
2023/10/19 11:05:38;;;;;;;5.10;1.52;;;18.70;99.90;;;;;;4150664;28;20045;-68
2023/10/19 11:07:40;;;;;;;6.20;1.92;;;18.80;99.90;;;;;;4150084;28;20041;-68